Time;durP1;ratioP1;P1;durP2;ratioP2;P2;SDS_P1;SDS_P2;PMS_P1;PMS_P2;Temp;Humidity;BMP_temperature;BMP_pressure;BME280_temperature;BME280_humidity;BME280_pressure;Samples;Min_cycle;Max_cycle;Signal;HPM_P1;HPM_P2
2021/07/03 00:00:56;;;;;;;3.53;3.23;;;;;;;12.39;93.11;95758.50;5011803;28;20323;-78
2021/07/03 00:03:24;;;;;;;4.17;3.87;;;;;;;12.45;93.15;95753.28;5011027;28;20861;-78
2021/07/03 00:05:53;;;;;;;3.50;3.30;;;;;;;12.49;93.18;95751.88;5025728;28;20318;-78
2021/07/03 00:08:23;;;;;;;3.17;2.97;;;;;;;12.53;92.89;95754.97;5018961;28;20302;-78
2021/07/03 00:10:51;;;;;;;3.27;3.10;;;;;;;12.55;93.10;95752.94;5026623;28;20560;-78
2021/07/03 00:13:19;;;;;;;2.90;2.70;;;;;;;12.57;93.12;95761.50;5025692;28;20267;-78
2021/07/03 00:15:47;;;;;;;5.87;5.27;;;;;;;12.58;93.39;95752.53;5029500;28;20223;-78
2021/07/03 00:18:16;;;;;;;5.13;4.77;;;;;;;12.57;93.31;95745.59;5026200;28;20226;-77
2021/07/03 00:20:44;;;;;;;4.23;3.93;;;;;;;12.62;93.38;95742.38;5028137;28;20720;-78
2021/07/03 00:23:13;;;;;;;3.87;3.57;;;;;;;12.69;92.89;95748.53;5006955;28;20212;-78
2021/07/03 00:25:42;;;;;;;4.73;4.33;;;;;;;12.71;92.34;95744.69;5022815;28;20223;-78
2021/07/03 00:28:10;;;;;;;4.50;4.03;;;;;;;12.69;92.21;95749.34;5020356;28;20638;-78
2021/07/03 00:30:38;;;;;;;4.13;3.83;;;;;;;12.63;92.08;95747.50;5017687;28;20294;-77
2021/07/03 00:33:06;;;;;;;4.17;3.90;;;;;;;12.38;91.60;95754.22;5026812;28;20243;-77
2021/07/03 00:35:34;;;;;;;4.00;3.70;;;;;;;12.27;92.21;95755.59;5023778;28;20289;-77
2021/07/03 00:38:03;;;;;;;4.13;3.83;;;;;;;12.26;92.15;95748.66;5016733;28;20220;-77
2021/07/03 00:40:34;;;;;;;4.30;3.03;;;;;;;12.25;92.34;95749.63;5014148;28;20224;-76
2021/07/03 00:43:03;;;;;;;3.17;3.00;;;;;;;12.23;92.32;95755.13;5025469;28;20303;-77
2021/07/03 00:45:31;;;;;;;3.70;3.40;;;;;;;12.23;92.49;95756.97;5026220;28;20231;-77
2021/07/03 00:48:00;;;;;;;3.40;2.77;;;;;;;12.19;92.44;95756.53;5021975;28;20264;-78
2021/07/03 00:50:28;;;;;;;3.27;3.07;;;;;;;12.15;92.56;95752.63;5009576;28;20227;-78
2021/07/03 00:52:57;;;;;;;2.40;2.30;;;;;;;12.09;92.71;95748.09;5015104;28;20596;-77
2021/07/03 00:55:28;;;;;;;3.97;3.03;;;;;;;12.07;92.94;95744.00;5019459;28;20297;-78
2021/07/03 00:57:59;;;;;;;3.90;3.67;;;;;;;12.06;93.02;95737.06;5020750;28;20234;-77
2021/07/03 01:00:32;;;;;;;4.47;4.17;;;;;;;12.07;93.19;95739.56;5019779;28;20227;-78
2021/07/03 01:03:03;;;;;;;4.07;3.77;;;;;;;12.05;93.16;95741.53;5018434;28;20392;-78
2021/07/03 01:05:31;;;;;;;3.83;3.53;;;;;;;12.00;93.41;95738.66;5017885;28;20843;-78
2021/07/03 01:08:00;;;;;;;2.97;2.77;;;;;;;11.95;93.49;95741.06;5016300;28;20297;-78
2021/07/03 01:10:33;;;;;;;3.13;2.90;;;;;;;11.94;93.61;95745.53;5021837;28;20243;-78
2021/07/03 01:13:17;;;;;;;3.27;3.07;;;;;;;11.90;93.44;95739.00;5023231;28;20303;-78
2021/07/03 01:15:45;;;;;;;5.83;3.37;;;;;;;11.82;93.69;95736.47;5024643;28;20224;-78
2021/07/03 01:18:14;;;;;;;4.30;3.97;;;;;;;11.76;94.05;95746.94;5023723;28;20306;-77
2021/07/03 01:20:49;;;;;;;2.73;2.63;;;;;;;11.70;94.36;95737.94;5017845;28;20228;-78
2021/07/03 01:23:19;;;;;;;2.80;2.60;;;;;;;11.69;94.32;95731.84;5018666;28;20279;-78
2021/07/03 01:25:48;;;;;;;2.53;2.33;;;;;;;11.68;94.16;95732.84;5018187;28;20787;-78
2021/07/03 01:28:16;;;;;;;3.43;3.23;;;;;;;11.72;94.69;95733.31;5027596;28;20245;-78
2021/07/03 01:30:44;;;;;;;4.50;4.20;;;;;;;11.73;95.40;95736.75;5021962;28;20268;-78
2021/07/03 01:33:14;;;;;;;3.23;2.93;;;;;;;11.67;95.07;95725.94;5011719;28;20227;-78
2021/07/03 01:35:43;;;;;;;3.73;3.43;;;;;;;11.58;94.51;95728.88;5030722;28;20407;-78
2021/07/03 01:38:20;;;;;;;4.80;2.87;;;;;;;11.52;94.65;95733.13;5019042;28;20423;-78
2021/07/03 01:40:51;;;;;;;2.97;2.77;;;;;;;11.47;94.60;95730.19;5022564;28;20681;-78
2021/07/03 01:43:27;;;;;;;5.47;3.17;;;;;;;11.46;94.91;95725.09;5020468;28;20216;-79
2021/07/03 01:45:59;;;;;;;4.23;3.93;;;;;;;11.48;95.02;95736.31;5027055;28;20675;-79
2021/07/03 01:48:33;;;;;;;4.27;3.97;;;;;;;11.50;95.23;95727.19;5013880;28;20261;-79
2021/07/03 01:51:08;;;;;;;4.20;3.90;;;;;;;11.52;95.29;95730.47;5022311;28;20242;-78
2021/07/03 01:53:39;;;;;;;4.67;4.37;;;;;;;11.48;95.62;95723.91;5032731;28;20250;-79
2021/07/03 01:56:08;;;;;;;4.23;3.60;;;;;;;11.43;95.94;95730.75;5021149;28;20242;-78
2021/07/03 01:58:38;;;;;;;3.63;3.43;;;;;;;11.43;96.14;95726.31;5013099;28;20228;-78
2021/07/03 02:01:17;;;;;;;4.43;4.13;;;;;;;11.43;95.82;95728.94;5028829;28;20223;-79
2021/07/03 02:03:48;;;;;;;4.13;3.83;;;;;;;11.41;95.96;95728.31;5028709;28;20315;-79
2021/07/03 02:06:25;;;;;;;3.00;2.80;;;;;;;11.38;95.65;95724.22;5010965;28;20243;-79
2021/07/03 02:08:54;;;;;;;3.77;3.40;;;;;;;11.33;95.50;95728.41;5026410;28;20230;-79
2021/07/03 02:11:23;;;;;;;2.80;2.60;;;;;;;11.29;95.77;95729.81;5020676;28;20420;-78
2021/07/03 02:13:59;;;;;;;3.90;3.60;;;;;;;11.26;95.97;95719.63;5021892;28;20605;-78
2021/07/03 02:16:35;;;;;;;5.50;5.10;;;;;;;11.20;96.39;95717.72;5016826;28;20247;-78
2021/07/03 02:19:08;;;;;;;3.43;3.23;;;;;;;11.21;96.37;95722.81;5018049;28;20224;-78
2021/07/03 02:21:38;;;;;;;4.47;4.17;;;;;;;11.22;96.47;95724.44;5012961;28;20560;-76
2021/07/03 02:24:15;;;;;;;4.27;3.93;;;;;;;11.23;96.51;95720.78;5021347;28;20223;-77
2021/07/03 02:26:45;;;;;;;4.30;4.00;;;;;;;11.23;96.30;95714.69;5014379;28;20223;-77
2021/07/03 02:29:13;;;;;;;4.60;4.20;;;;;;;11.21;96.49;95722.81;5008972;28;20232;-76
2021/07/03 02:31:42;;;;;;;4.87;4.40;;;;;;;11.21;96.58;95725.44;5013338;28;20230;-77
2021/07/03 02:34:12;;;;;;;3.20;3.00;;;;;;;11.29;96.62;95725.34;5012008;28;20232;-77
2021/07/03 02:36:41;;;;;;;3.73;3.50;;;;;;;11.29;96.62;95725.34;5018479;28;20223;-77
2021/07/03 02:39:12;;;;;;;3.93;3.63;;;;;;;11.29;96.73;95719.22;5028567;28;20460;-77
2021/07/03 02:41:51;;;;;;;4.47;4.17;;;;;;;11.29;96.53;95719.22;5020708;28;20219;-77
2021/07/03 02:44:21;;;;;;;4.33;3.93;;;;;;;11.27;96.76;95721.25;5021313;28;20310;-77
2021/07/03 02:46:49;;;;;;;3.67;3.47;;;;;;;11.25;96.95;95728.56;5029323;28;20222;-77
2021/07/03 02:49:20;;;;;;;6.50;4.70;;;;;;;11.24;96.64;95726.88;5019834;28;20223;-78
2021/07/03 02:51:49;;;;;;;4.63;4.33;;;;;;;11.26;97.05;95724.91;5021032;28;20211;-77
2021/07/03 02:54:17;;;;;;;3.90;3.70;;;;;;;11.25;97.09;95725.91;5024778;28;20646;-77
2021/07/03 02:56:45;;;;;;;5.07;4.57;;;;;;;11.25;96.96;95729.38;5018066;28;20244;-76
2021/07/03 02:59:15;;;;;;;4.90;4.60;;;;;;;11.23;97.15;95739.28;5025872;28;20294;-77
2021/07/03 03:01:44;;;;;;;4.93;4.63;;;;;;;11.18;96.94;95740.84;5022812;28;20271;-77
2021/07/03 03:04:13;;;;;;;2.97;2.77;;;;;;;11.15;96.58;95746.50;5023158;28;20362;-77
2021/07/03 03:06:43;;;;;;;4.50;4.23;;;;;;;11.13;96.74;95735.28;5024926;28;20443;-76
2021/07/03 03:09:12;;;;;;;3.03;2.83;;;;;;;11.02;96.49;95740.06;5009487;28;20319;-77
2021/07/03 03:11:41;;;;;;;2.57;2.37;;;;;;;10.97;95.91;95736.31;5027890;28;20243;-77
2021/07/03 03:14:10;;;;;;;2.13;2.03;;;;;;;10.92;95.90;95739.53;5020662;28;20281;-77
2021/07/03 03:16:40;;;;;;;2.53;2.33;;;;;;;10.87;95.86;95748.97;5033120;28;20273;-77
2021/07/03 03:19:09;;;;;;;3.53;3.33;;;;;;;10.74;95.67;95747.00;5022626;28;20216;-77
2021/07/03 03:21:40;;;;;;;3.37;3.17;;;;;;;10.60;95.28;95747.81;5007218;28;20323;-78
2021/07/03 03:24:09;;;;;;;3.50;3.20;;;;;;;10.51;95.48;95747.06;5030118;28;20250;-77
2021/07/03 03:26:37;;;;;;;2.47;2.27;;;;;;;10.49;95.50;95739.34;5029311;28;20435;-77
2021/07/03 03:29:08;;;;;;;3.47;3.17;;;;;;;10.48;95.62;95747.44;5031044;28;20227;-77
2021/07/03 03:31:38;;;;;;;3.27;2.97;;;;;;;10.44;95.62;95741.72;5022528;28;20215;-77
2021/07/03 03:34:08;;;;;;;2.80;2.60;;;;;;;10.47;95.92;95735.25;5014028;28;20314;-77
2021/07/03 03:36:37;;;;;;;2.67;2.50;;;;;;;10.51;96.46;95731.25;5031715;28;20215;-77
2021/07/03 03:39:06;;;;;;;3.27;3.07;;;;;;;10.60;96.43;95735.44;5026558;28;20232;-77
2021/07/03 03:41:34;;;;;;;4.47;3.53;;;;;;;10.61;96.46;95723.91;5029418;28;20236;-77
2021/07/03 03:44:08;;;;;;;3.37;3.17;;;;;;;10.66;96.65;95728.63;5020463;28;20277;-77
2021/07/03 03:46:38;;;;;;;3.83;3.40;;;;;;;10.75;96.42;95727.50;5032729;28;20234;-78
2021/07/03 03:49:09;;;;;;;4.17;3.87;;;;;;;10.80;96.65;95722.53;5045349;28;20235;-76
2021/07/03 03:51:38;;;;;;;3.33;3.13;;;;;;;10.87;96.57;95731.31;5020323;28;20239;-78
2021/07/03 03:54:07;;;;;;;3.43;3.23;;;;;;;10.93;96.38;95730.59;5022295;28;20227;-77
2021/07/03 03:56:35;;;;;;;8.43;4.90;;;;;;;10.94;96.91;95732.22;5022899;28;20290;-77
2021/07/03 03:59:04;;;;;;;3.73;3.53;;;;;;;11.02;96.42;95733.97;5032238;28;20289;-77
2021/07/03 04:01:33;;;;;;;3.30;3.03;;;;;;;11.13;96.37;95730.00;5031387;28;20736;-77
2021/07/03 04:04:03;;;;;;;4.10;3.80;;;;;;;11.23;96.21;95738.47;5020674;28;20274;-78
2021/07/03 04:06:33;;;;;;;6.30;4.27;;;;;;;11.27;96.38;95748.47;5025823;28;20744;-77
2021/07/03 04:09:02;;;;;;;5.40;4.27;;;;;;;11.31;96.04;95748.91;5018261;28;20232;-77
2021/07/03 04:11:33;;;;;;;3.40;3.10;;;;;;;11.34;96.15;95743.28;5024932;28;20269;-77
2021/07/03 04:14:01;;;;;;;3.87;3.67;;;;;;;11.38;95.77;95744.53;5030119;28;20243;-77
2021/07/03 04:16:29;;;;;;;2.87;2.77;;;;;;;11.42;95.48;95745.78;5031864;28;20270;-77
2021/07/03 04:18:57;;;;;;;3.03;2.83;;;;;;;11.49;95.61;95746.69;5023954;28;20255;-80
2021/07/03 04:21:25;;;;;;;3.90;3.60;;;;;;;11.56;95.39;95737.00;5030646;28;20228;-80
2021/07/03 04:23:57;;;;;;;3.17;2.97;;;;;;;11.60;95.27;95738.25;5034915;28;20215;-79
2021/07/03 04:26:26;;;;;;;3.70;3.00;;;;;;;11.59;95.14;95731.34;5027397;28;20246;-80
2021/07/03 04:28:54;;;;;;;2.83;2.63;;;;;;;11.61;95.09;95734.63;5031980;28;20467;-79
2021/07/03 04:31:23;;;;;;;4.47;4.17;;;;;;;11.59;94.99;95731.34;5035732;28;20220;-80
2021/07/03 04:33:52;;;;;;;4.03;3.73;;;;;;;11.57;94.86;95733.34;5034545;28;20228;-80
2021/07/03 04:36:20;;;;;;;3.20;3.00;;;;;;;11.64;95.05;95726.31;5028451;28;20220;-79
2021/07/03 04:38:48;;;;;;;4.37;4.07;;;;;;;11.67;95.18;95728.56;5032137;28;20219;-79
2021/07/03 04:41:18;;;;;;;3.20;2.93;;;;;;;11.75;95.08;95729.47;5031684;28;20227;-78
2021/07/03 04:43:46;;;;;;;3.97;3.77;;;;;;;11.76;94.96;95739.03;5025105;28;20220;-79
2021/07/03 04:46:14;;;;;;;3.73;3.53;;;;;;;11.81;94.83;95734.03;5016752;28;20228;-79
2021/07/03 04:48:43;;;;;;;4.83;4.53;;;;;;;11.56;95.95;95734.38;5033908;28;20211;-79
2021/07/03 04:51:11;;;;;;;3.57;3.37;;;;;;;11.59;96.16;95733.97;5024292;28;20791;-79
2021/07/03 04:53:40;;;;;;;5.83;4.07;;;;;;;11.69;96.12;95736.31;5030677;28;20238;-79
2021/07/03 04:56:08;;;;;;;5.23;4.90;;;;;;;11.76;96.19;95728.44;5035165;28;20317;-79
2021/07/03 04:58:38;;;;;;;5.17;4.77;;;;;;;11.86;96.17;95736.91;5038194;28;20227;-79
2021/07/03 05:01:06;;;;;;;4.23;3.83;;;;;;;11.98;95.61;95729.28;5023128;28;20239;-79
2021/07/03 05:03:34;;;;;;;4.43;4.10;;;;;;;12.09;95.40;95737.53;5036345;28;20289;-79
2021/07/03 05:06:05;;;;;;;3.40;3.17;;;;;;;12.21;95.21;95735.16;5033129;28;20223;-79
2021/07/03 05:08:34;;;;;;;3.53;3.30;;;;;;;12.33;95.38;95733.63;5035509;28;20231;-79
2021/07/03 05:11:03;;;;;;;5.63;5.07;;;;;;;12.43;95.07;95733.28;5031443;28;20847;-79
2021/07/03 05:13:31;;;;;;;3.97;3.77;;;;;;;12.54;94.81;95730.13;5021333;28;20221;-79
2021/07/03 05:16:01;;;;;;;6.37;3.90;;;;;;;12.69;94.72;95730.00;5032739;28;20310;-79
2021/07/03 05:18:30;;;;;;;4.53;3.93;;;;;;;12.85;94.37;95720.91;5033376;28;20282;-79
2021/07/03 05:20:58;;;;;;;4.73;4.33;;;;;;;12.95;94.15;95734.63;5030332;28;20224;-79
2021/07/03 05:23:26;;;;;;;4.37;4.03;;;;;;;13.06;93.83;95734.03;5029511;28;20274;-79
2021/07/03 05:25:57;;;;;;;3.87;3.67;;;;;;;13.18;93.85;95721.88;5030423;28;20289;-79
2021/07/03 05:28:25;;;;;;;4.40;4.20;;;;;;;13.31;93.46;95727.25;5028950;28;20219;-79
2021/07/03 05:30:54;;;;;;;7.10;5.27;;;;;;;13.46;93.26;95734.25;5052396;28;20250;-81
2021/07/03 05:33:24;;;;;;;4.87;4.57;;;;;;;13.56;93.07;95729.38;5034033;28;20215;-80
2021/07/03 05:35:52;;;;;;;5.10;4.63;;;;;;;13.69;92.94;95732.03;5026318;28;20227;-79
2021/07/03 05:38:20;;;;;;;4.77;4.37;;;;;;;13.81;93.03;95722.47;5022898;28;20266;-78
2021/07/03 05:40:49;;;;;;;6.57;4.60;;;;;;;13.90;93.08;95725.75;5033778;28;20277;-79
2021/07/03 05:43:17;;;;;;;5.73;5.23;;;;;;;14.00;93.05;95725.34;5027862;28;20897;-79
2021/07/03 05:45:46;;;;;;;4.73;4.47;;;;;;;14.04;92.66;95722.09;5029928;28;20258;-78
2021/07/03 05:48:15;;;;;;;6.10;5.60;;;;;;;14.18;92.31;95729.03;5028076;28;20207;-78
2021/07/03 05:50:45;;;;;;;4.83;4.53;;;;;;;14.23;92.17;95720.44;5032935;28;20258;-79
2021/07/03 05:53:13;;;;;;;5.30;4.90;;;;;;;14.26;91.87;95727.19;5021699;28;20220;-78
2021/07/03 05:55:41;;;;;;;6.53;6.00;;;;;;;14.39;91.89;95720.03;5028754;28;20599;-78
2021/07/03 05:58:09;;;;;;;5.50;5.23;;;;;;;14.47;91.32;95729.66;5034901;28;20227;-78
2021/07/03 06:00:37;;;;;;;5.40;5.00;;;;;;;14.62;90.92;95730.22;5024496;28;20282;-78
2021/07/03 06:03:05;;;;;;;5.37;4.53;;;;;;;14.72;90.24;95729.81;5028998;28;20273;-79
2021/07/03 06:05:34;;;;;;;5.93;5.43;;;;;;;14.85;89.91;95729.78;5023286;28;20256;-78
2021/07/03 06:08:04;;;;;;;5.77;5.33;;;;;;;14.94;89.56;95725.88;5012324;28;20235;-78
2021/07/03 06:10:32;;;;;;;5.77;5.27;;;;;;;15.06;89.29;95716.22;5035964;28;20326;-78
2021/07/03 06:13:04;;;;;;;6.43;5.97;;;;;;;15.13;89.13;95720.69;5022138;28;20243;-78
2021/07/03 06:15:32;;;;;;;5.83;5.53;;;;;;;15.31;88.88;95712.84;5024815;28;20319;-78
2021/07/03 06:18:00;;;;;;;6.73;5.87;;;;;;;15.51;88.62;95712.75;5027641;28;20678;-78
2021/07/03 06:20:28;;;;;;;6.10;5.63;;;;;;;15.66;88.87;95709.84;5021950;28;20344;-78
2021/07/03 06:22:56;;;;;;;5.70;5.30;;;;;;;15.85;88.57;95706.22;5021174;28;20230;-78
2021/07/03 06:25:25;;;;;;;6.03;5.43;;;;;;;16.05;88.96;95704.22;5029472;28;20645;-78
2021/07/03 06:27:54;;;;;;;4.43;4.20;;;;;;;16.26;88.40;95710.22;5032007;28;20230;-78
2021/07/03 06:30:22;;;;;;;6.00;5.43;;;;;;;16.47;87.22;95707.97;5030485;28;20771;-77
2021/07/03 06:32:50;;;;;;;6.37;5.77;;;;;;;16.67;84.83;95705.13;5019395;28;20231;-78
2021/07/03 06:35:19;;;;;;;6.27;5.80;;;;;;;16.89;82.54;95702.03;5020109;28;20262;-78
2021/07/03 06:37:47;;;;;;;6.27;5.87;;;;;;;17.15;81.17;95709.75;5011263;28;20254;-78
2021/07/03 06:40:15;;;;;;;5.77;5.40;;;;;;;17.42;79.87;95707.56;5017006;28;20211;-77
2021/07/03 06:42:45;;;;;;;4.53;4.27;;;;;;;17.58;79.02;95703.47;5013867;28;20278;-78
2021/07/03 06:45:13;;;;;;;5.63;5.17;;;;;;;17.71;78.37;95700.63;5025058;28;20940;-78
2021/07/03 06:47:40;;;;;;;5.70;5.23;;;;;;;17.83;78.03;95693.47;5011880;28;20247;-75
2021/07/03 06:50:10;;;;;;;4.63;4.23;;;;;;;17.99;77.71;95693.84;5020303;28;20346;-78
2021/07/03 06:52:38;;;;;;;7.50;6.90;;;;;;;18.17;77.55;95696.44;5023861;28;20233;-78
2021/07/03 06:55:08;;;;;;;5.63;5.17;;;;;;;18.36;77.23;95705.97;5031157;28;20243;-76
2021/07/03 06:57:36;;;;;;;4.70;4.30;;;;;;;18.48;75.79;95709.50;5016145;28;20667;-76
2021/07/03 07:00:08;;;;;;;5.53;5.13;;;;;;;18.63;74.27;95703.66;5021251;28;20600;-78
2021/07/03 07:02:36;;;;;;;5.17;4.77;;;;;;;18.68;75.38;95709.16;5024989;28;20246;-79
2021/07/03 07:05:07;;;;;;;4.67;4.47;;;;;;;18.79;73.74;95699.50;5017499;28;20246;-75
2021/07/03 07:07:36;;;;;;;6.03;5.53;;;;;;;18.96;73.54;95689.72;5024004;28;20228;-77
2021/07/03 07:10:06;;;;;;;6.07;5.57;;;;;;;19.19;73.58;95699.53;5025052;28;20262;-77
2021/07/03 07:12:34;;;;;;;4.97;4.67;;;;;;;19.38;71.95;95686.81;5022065;28;20505;-78
2021/07/03 07:15:02;;;;;;;5.37;5.07;;;;;;;19.53;72.05;95684.44;5025320;28;20700;-78
2021/07/03 07:17:31;;;;;;;8.33;5.37;;;;;;;19.75;71.16;95686.44;5020780;28;20242;-79
2021/07/03 07:20:00;;;;;;;5.17;4.67;;;;;;;19.85;69.68;95678.63;5023287;28;20227;-77
2021/07/03 07:22:28;;;;;;;5.33;4.93;;;;;;;20.05;69.85;95678.97;5032823;28;20266;-78
2021/07/03 07:24:56;;;;;;;4.57;4.27;;;;;;;20.29;68.58;95665.38;5027995;28;20693;-78
2021/07/03 07:27:24;;;;;;;4.00;3.80;;;;;;;20.53;66.90;95660.69;5021841;28;20633;-79
2021/07/03 07:29:52;;;;;;;6.00;5.50;;;;;;;20.90;66.65;95664.44;5031749;28;20727;-78
2021/07/03 07:32:20;;;;;;;4.87;4.57;;;;;;;21.11;64.24;95662.00;5028680;28;20228;-79
2021/07/03 07:34:50;;;;;;;3.73;3.53;;;;;;;21.29;62.28;95673.25;5013494;28;20729;-79
2021/07/03 07:37:18;;;;;;;3.50;3.30;;;;;;;21.44;61.01;95671.81;5020434;28;20224;-79
2021/07/03 07:39:46;;;;;;;5.70;3.13;;;;;;;21.67;59.26;95666.19;5015538;28;20248;-78
2021/07/03 07:42:14;;;;;;;4.23;4.03;;;;;;;21.86;58.56;95659.38;5025144;28;20321;-78
2021/07/03 07:44:42;;;;;;;5.53;2.60;;;;;;;21.77;58.68;95660.91;5019457;28;20296;-79
2021/07/03 07:47:10;;;;;;;3.40;3.10;;;;;;;22.05;58.82;95649.06;5018467;28;20726;-79
2021/07/03 07:49:38;;;;;;;2.47;2.37;;;;;;;22.37;58.76;95649.06;5022267;28;20267;-78
2021/07/03 07:52:08;;;;;;;3.60;3.40;;;;;;;22.54;57.07;95658.84;5018585;28;20208;-79
2021/07/03 07:54:36;;;;;;;4.07;3.87;;;;;;;22.77;56.07;95653.09;5018987;28;20243;-80
2021/07/03 07:57:04;;;;;;;7.10;4.27;;;;;;;23.05;54.56;95640.34;5023985;28;20277;-79
2021/07/03 07:59:32;;;;;;;3.03;2.60;;;;;;;23.30;53.28;95640.44;5025181;28;20248;-79
2021/07/03 08:02:00;;;;;;;3.07;2.93;;;;;;;23.48;53.76;95642.63;5025027;28;20307;-79
2021/07/03 08:04:29;;;;;;;2.50;2.40;;;;;;;23.59;50.98;95631.88;5030664;28;20339;-80
2021/07/03 08:06:57;;;;;;;3.53;3.37;;;;;;;23.60;51.17;95634.38;5027445;28;20315;-79
2021/07/03 08:09:26;;;;;;;3.28;3.08;;;;;;;23.56;50.67;95639.44;5024003;28;20247;-80
2021/07/03 08:11:54;;;;;;;3.50;3.30;;;;;;;23.64;50.67;95640.81;5022931;28;20308;-79
2021/07/03 08:14:22;;;;;;;4.27;3.30;;;;;;;23.85;51.57;95636.28;5034496;28;20329;-78
2021/07/03 08:16:51;;;;;;;3.80;3.60;;;;;;;24.02;50.00;95636.81;5046353;28;20812;-79
2021/07/03 08:19:19;;;;;;;2.60;2.50;;;;;;;24.18;49.58;95634.13;5026843;28;20222;-79
2021/07/03 08:21:47;;;;;;;2.83;2.70;;;;;;;24.34;49.36;95633.09;5026626;28;20242;-79
2021/07/03 08:24:17;;;;;;;3.40;3.22;;;;;;;24.49;49.77;95633.06;5027916;28;20224;-78
2021/07/03 08:26:46;;;;;;;3.10;2.80;;;;;;;24.62;49.32;95632.50;5021183;28;20228;-80
2021/07/03 08:29:14;;;;;;;3.70;3.15;;;;;;;24.81;50.81;95632.72;5029092;28;20227;-79
2021/07/03 08:31:42;;;;;;;3.58;3.38;;;;;;;25.08;49.81;95635.09;5028911;28;20310;-80
2021/07/03 08:34:11;;;;;;;4.47;4.00;;;;;;;25.29;49.27;95632.31;5026334;28;20689;-79
2021/07/03 08:36:39;;;;;;;6.65;2.75;;;;;;;25.47;49.89;95620.88;5022184;28;20681;-79
2021/07/03 08:39:07;;;;;;;2.88;2.78;;;;;;;25.62;49.42;95623.50;5017327;28;20230;-78
2021/07/03 08:41:36;;;;;;;2.72;2.63;;;;;;;25.70;47.68;95616.69;5029150;28;20224;-79
2021/07/03 08:44:07;;;;;;;3.78;3.58;;;;;;;25.45;47.61;95614.94;5014663;28;20262;-79
2021/07/03 08:46:36;;;;;;;2.78;2.60;;;;;;;25.43;47.85;95622.53;5017357;28;20701;-78
2021/07/03 08:49:05;;;;;;;3.20;3.10;;;;;;;25.58;48.19;95618.91;5024441;28;20243;-79
2021/07/03 08:51:33;;;;;;;3.33;2.85;;;;;;;25.82;47.71;95619.06;5030166;28;20232;-80
2021/07/03 08:54:05;;;;;;;2.88;2.78;;;;;;;26.22;48.30;95624.16;5030848;28;20224;-79
2021/07/03 08:56:33;;;;;;;2.83;2.72;;;;;;;26.51;48.08;95626.91;5022654;28;20227;-79
2021/07/03 08:59:01;;;;;;;3.22;3.03;;;;;;;27.02;45.24;95617.44;5029755;28;20247;-79
2021/07/03 09:01:31;;;;;;;2.35;2.25;;;;;;;27.43;45.71;95612.34;5025332;28;20595;-80
2021/07/03 09:03:59;;;;;;;3.15;3.05;;;;;;;27.80;43.72;95611.59;5020397;28;20256;-80
2021/07/03 09:06:32;;;;;;;3.42;3.22;;;;;;;28.13;45.01;95606.19;5018970;28;20254;-79
2021/07/03 09:09:00;;;;;;;3.03;2.83;;;;;;;28.34;45.27;95607.47;5020589;28;20224;-79
2021/07/03 09:11:30;;;;;;;3.78;3.55;;;;;;;28.45;42.67;95603.50;5030223;28;20232;-79
2021/07/03 09:14:01;;;;;;;2.67;2.42;;;;;;;28.48;42.61;95602.91;5024616;28;20299;-80
2021/07/03 09:16:32;;;;;;;3.05;2.92;;;;;;;28.78;43.21;95606.16;5031223;28;20233;-79
2021/07/03 09:19:02;;;;;;;3.00;2.90;;;;;;;28.59;43.73;95598.91;5019762;28;20693;-81
2021/07/03 09:21:31;;;;;;;3.78;3.58;;;;;;;29.13;43.44;95600.06;5024556;28;20239;-81
2021/07/03 09:24:01;;;;;;;2.72;2.53;;;;;;;29.42;39.56;95598.91;5028996;28;20219;-81
2021/07/03 09:26:29;;;;;;;2.97;2.88;;;;;;;29.64;40.57;95601.72;5033068;28;20326;-80
2021/07/03 09:28:58;;;;;;;3.38;3.17;;;;;;;29.65;41.04;95594.38;5030967;28;20262;-80
2021/07/03 09:31:25;;;;;;;3.25;2.90;;;;;;;29.71;39.53;95596.66;5028596;28;20219;-81
2021/07/03 09:33:55;;;;;;;2.97;2.83;;;;;;;29.52;39.33;95598.72;5021147;28;20223;-79
2021/07/03 09:36:26;;;;;;;3.13;2.97;;;;;;;29.74;38.70;95593.34;5025870;28;20269;-80
2021/07/03 09:38:56;;;;;;;3.50;3.30;;;;;;;29.99;38.92;95591.13;5020440;28;20243;-80
2021/07/03 09:41:28;;;;;;;2.63;2.53;;;;;;;29.94;38.79;95583.09;5026017;28;20243;-80
2021/07/03 09:44:01;;;;;;;2.83;2.72;;;;;;;30.06;40.63;95588.78;5028281;28;20698;-80
2021/07/03 09:46:31;;;;;;;2.05;1.95;;;;;;;30.41;41.23;95584.38;5025619;28;20329;-79
2021/07/03 09:49:04;;;;;;;2.40;2.30;;;;;;;30.44;36.25;95585.69;5040257;28;20787;-80
2021/07/03 09:51:36;;;;;;;2.72;2.60;;;;;;;30.46;38.85;95583.47;5012463;28;20227;-81
2021/07/03 09:54:07;;;;;;;2.70;2.60;;;;;;;30.61;39.75;95580.31;5021851;28;20269;-80
2021/07/03 09:56:36;;;;;;;2.65;2.55;;;;;;;30.92;40.70;95585.78;5040623;28;20231;-80
2021/07/03 09:59:05;;;;;;;3.53;3.33;;;;;;;31.02;37.25;95580.06;5024469;28;20220;-80
2021/07/03 10:01:40;;;;;;;2.60;2.50;;;;;;;31.06;36.14;95588.38;5024130;28;20250;-78
2021/07/03 10:04:11;;;;;;;2.65;2.55;;;;;;;31.02;37.83;95579.25;5018102;28;20224;-80
2021/07/03 10:06:46;;;;;;;2.75;2.65;;;;;;;31.26;38.42;95567.94;5020932;28;20419;-80
2021/07/03 10:09:24;;;;;;;4.57;2.22;;;;;;;31.49;37.86;95566.72;5015027;28;20276;-82
2021/07/03 10:11:55;;;;;;;3.03;2.90;;;;;;;31.50;35.22;95562.06;5021751;28;20224;-83
2021/07/03 10:14:25;;;;;;;2.70;2.60;;;;;;;31.46;37.12;95572.00;5027721;28;20227;-81
2021/07/03 10:17:01;;;;;;;2.67;2.58;;;;;;;31.54;37.14;95565.75;5012351;28;20336;-81
2021/07/03 10:19:36;;;;;;;2.80;2.10;;;;;;;31.62;36.67;95562.22;5023367;28;20219;-81
2021/07/03 10:22:15;;;;;;;2.45;2.35;;;;;;;31.60;37.38;95559.00;5037178;28;20227;-78
2021/07/03 10:24:45;;;;;;;3.40;3.30;;;;;;;31.42;37.30;95553.53;5014210;28;20706;-81
2021/07/03 10:27:21;;;;;;;3.50;3.20;;;;;;;31.29;38.37;95549.03;5027034;28;20542;-81
2021/07/03 10:29:50;;;;;;;3.05;2.95;;;;;;;31.89;36.17;95542.81;5031623;28;20277;-82
2021/07/03 10:32:24;;;;;;;3.00;2.80;;;;;;;30.14;38.77;95554.59;5021471;28;20600;-81
2021/07/03 10:34:54;;;;;;;2.38;2.28;;;;;;;29.72;42.77;95554.75;5015329;28;20273;-81
2021/07/03 10:37:33;;;;;;;3.83;3.63;;;;;;;29.53;38.49;95545.13;5018454;28;20243;-82
2021/07/03 10:40:02;;;;;;;3.20;3.10;;;;;;;30.23;40.58;95548.09;5014984;28;20704;-82
2021/07/03 10:42:31;;;;;;;2.78;2.67;;;;;;;30.55;38.75;95543.47;5023708;28;20246;-81
2021/07/03 10:45:11;;;;;;;2.78;2.67;;;;;;;30.49;39.02;95536.53;5029901;28;20215;-81
2021/07/03 10:47:39;;;;;;;2.72;2.30;;;;;;;30.62;38.38;95532.91;5026471;28;20243;-79
2021/07/03 10:50:21;;;;;;;2.30;2.20;;;;;;;30.69;38.60;95538.72;5016011;28;20223;-78
2021/07/03 10:52:50;;;;;;;2.35;2.25;;;;;;;30.76;37.52;95532.84;5015430;28;20282;-78
2021/07/03 10:55:32;;;;;;;5.07;4.78;;;;;;;30.83;37.89;95528.53;5020314;28;20312;-80
2021/07/03 10:58:01;;;;;;;3.40;3.10;;;;;;;30.31;37.93;95532.91;5023386;28;20322;-80
2021/07/03 11:00:29;;;;;;;1.80;1.75;;;;;;;30.63;36.67;95526.31;5018964;28;20335;-80
2021/07/03 11:02:58;;;;;;;3.50;3.20;;;;;;;30.52;37.40;95519.56;5017784;28;20281;-80
2021/07/03 11:05:35;;;;;;;3.45;3.28;;;;;;;30.44;39.11;95517.59;5023586;28;20703;-80
2021/07/03 11:08:23;;;;;;;3.03;2.92;;;;;;;30.56;36.68;95523.28;5012946;28;20314;-80
2021/07/03 11:10:51;;;;;;;2.55;2.45;;;;;;;30.54;36.14;95522.75;5017233;28;20247;-80
2021/07/03 11:13:22;;;;;;;2.83;2.63;;;;;;;30.36;36.82;95523.81;5021892;28;20239;-80
2021/07/03 11:15:51;;;;;;;2.38;2.28;;;;;;;30.07;36.09;95516.91;5021984;28;20660;-78
2021/07/03 11:18:20;;;;;;;3.20;3.10;;;;;;;29.93;37.32;95510.75;5022645;28;20251;-80
2021/07/03 11:20:49;;;;;;;3.33;2.83;;;;;;;29.63;35.57;95510.38;5026824;28;20340;-81
2021/07/03 11:23:20;;;;;;;2.63;2.53;;;;;;;29.65;37.55;95513.59;5026064;28;20219;-78
2021/07/03 11:25:48;;;;;;;1.50;1.50;;;;;;;29.36;37.97;95505.00;5022730;28;20234;-77
2021/07/03 11:28:18;;;;;;;2.95;2.75;;;;;;;29.39;38.97;95504.38;5012531;28;20228;-80
2021/07/03 11:30:56;;;;;;;2.35;2.22;;;;;;;29.21;39.69;95499.91;5011447;28;20718;-81
2021/07/03 11:33:27;;;;;;;2.47;2.38;;;;;;;27.64;39.66;95497.09;5023432;28;20238;-79
2021/07/03 11:35:57;;;;;;;2.40;2.30;;;;;;;28.53;41.73;95496.94;5024549;28;20231;-80
2021/07/03 11:38:27;;;;;;;3.92;2.92;;;;;;;29.38;42.60;95491.91;5011311;28;20667;-80
2021/07/03 11:40:56;;;;;;;2.40;2.30;;;;;;;29.77;38.45;95493.97;5013811;28;20243;-80
2021/07/03 11:43:26;;;;;;;2.33;2.22;;;;;;;30.02;39.76;95498.00;5021990;28;20220;-79
2021/07/03 11:45:54;;;;;;;2.83;2.30;;;;;;;30.27;41.65;95494.63;5019612;28;20661;-80